sensor_id;sensor_type;location;lat;lon;timestamp;pressure;altitude;pressure_sealevel;temperature;humidity
61678;BME280;47575;52.054;4.334;2022-11-02T00:02:16;101589.25;;;11.20;100.00
61678;BME280;47575;52.054;4.334;2022-11-02T00:04:43;101563.50;;;11.00;100.00
61678;BME280;47575;52.054;4.334;2022-11-02T00:07:12;101581.22;;;10.89;100.00
61678;BME280;47575;52.054;4.334;2022-11-02T00:09:39;101579.75;;;10.76;100.00
61678;BME280;47575;52.054;4.334;2022-11-02T00:12:06;101612.97;;;10.74;100.00
61678;BME280;47575;52.054;4.334;2022-11-02T00:14:33;101583.50;;;10.63;100.00
61678;BME280;47575;52.054;4.334;2022-11-02T00:17:00;101570.47;;;10.61;100.00
61678;BME280;47575;52.054;4.334;2022-11-02T00:19:27;101576.47;;;10.66;100.00
61678;BME280;47575;52.054;4.334;2022-11-02T00:21:55;101541.47;;;10.70;100.00
61678;BME280;47575;52.054;4.334;2022-11-02T00:24:24;101526.25;;;10.88;100.00
61678;BME280;47575;52.054;4.334;2022-11-02T00:26:51;101530.44;;;10.95;100.00
61678;BME280;47575;52.054;4.334;2022-11-02T00:29:19;101534.81;;;10.94;100.00
61678;BME280;47575;52.054;4.334;2022-11-02T00:31:48;101548.81;;;10.93;100.00
61678;BME280;47575;52.054;4.334;2022-11-02T00:34:15;101540.94;;;10.93;100.00
61678;BME280;47575;52.054;4.334;2022-11-02T00:36:42;101532.38;;;10.87;100.00
61678;BME280;47575;52.054;4.334;2022-11-02T00:39:09;101534.13;;;10.88;100.00
61678;BME280;47575;52.054;4.334;2022-11-02T00:41:38;101540.22;;;10.87;100.00
61678;BME280;47575;52.054;4.334;2022-11-02T00:44:05;101529.75;;;10.87;100.00
61678;BME280;47575;52.054;4.334;2022-11-02T00:46:32;101538.50;;;10.86;100.00
61678;BME280;47575;52.054;4.334;2022-11-02T00:48:59;101545.50;;;10.85;100.00
61678;BME280;47575;52.054;4.334;2022-11-02T00:51:27;101542.09;;;10.81;100.00
61678;BME280;47575;52.054;4.334;2022-11-02T00:53:54;101539.56;;;10.77;100.00
61678;BME280;47575;52.054;4.334;2022-11-02T00:56:21;101549.09;;;10.79;100.00
61678;BME280;47575;52.054;4.334;2022-11-02T00:58:50;101540.56;;;10.71;100.00
61678;BME280;47575;52.054;4.334;2022-11-02T01:01:17;101533.66;;;10.69;100.00
61678;BME280;47575;52.054;4.334;2022-11-02T01:03:44;101528.50;;;10.66;100.00
61678;BME280;47575;52.054;4.334;2022-11-02T01:06:12;101526.78;;;10.63;100.00
61678;BME280;47575;52.054;4.334;2022-11-02T01:08:39;101528.66;;;10.57;100.00
61678;BME280;47575;52.054;4.334;2022-11-02T01:11:10;101538.28;;;10.56;100.00
61678;BME280;47575;52.054;4.334;2022-11-02T01:13:37;101533.16;;;10.51;100.00
61678;BME280;47575;52.054;4.334;2022-11-02T01:16:06;101528.63;;;10.60;100.00
61678;BME280;47575;52.054;4.334;2022-11-02T01:18:33;101529.59;;;10.54;100.00
61678;BME280;47575;52.054;4.334;2022-11-02T01:21:00;101547.84;;;10.59;100.00
61678;BME280;47575;52.054;4.334;2022-11-02T01:23:30;101549.59;;;10.57;100.00
61678;BME280;47575;52.054;4.334;2022-11-02T01:26:01;101532.22;;;10.54;100.00
61678;BME280;47575;52.054;4.334;2022-11-02T01:28:28;101516.41;;;10.59;100.00
61678;BME280;47575;52.054;4.334;2022-11-02T01:30:55;101523.34;;;10.61;100.00
61678;BME280;47575;52.054;4.334;2022-11-02T01:33:25;101528.53;;;10.63;100.00
61678;BME280;47575;52.054;4.334;2022-11-02T01:35:53;101531.97;;;10.65;100.00
61678;BME280;47575;52.054;4.334;2022-11-02T01:38:22;101528.53;;;10.63;100.00
61678;BME280;47575;52.054;4.334;2022-11-02T01:40:49;101533.78;;;10.63;100.00
61678;BME280;47575;52.054;4.334;2022-11-02T01:43:20;101509.00;;;10.77;100.00
61678;BME280;47575;52.054;4.334;2022-11-02T01:45:47;101512.50;;;10.78;100.00
61678;BME280;47575;52.054;4.334;2022-11-02T01:48:16;101511.38;;;10.90;100.00
61678;BME280;47575;52.054;4.334;2022-11-02T01:50:45;101505.06;;;10.98;100.00
61678;BME280;47575;52.054;4.334;2022-11-02T01:53:13;101518.06;;;11.01;100.00
61678;BME280;47575;52.054;4.334;2022-11-02T01:55:40;101535.34;;;11.10;100.00
61678;BME280;47575;52.054;4.334;2022-11-02T01:58:09;101535.13;;;11.19;100.00
61678;BME280;47575;52.054;4.334;2022-11-02T02:00:36;101534.81;;;11.31;100.00
61678;BME280;47575;52.054;4.334;2022-11-02T02:03:05;101544.34;;;11.35;100.00
61678;BME280;47575;52.054;4.334;2022-11-02T02:05:33;101540.63;;;11.44;100.00
61678;BME280;47575;52.054;4.334;2022-11-02T02:08:03;101522.25;;;11.46;100.00
61678;BME280;47575;52.054;4.334;2022-11-02T02:10:30;101509.28;;;11.40;100.00
61678;BME280;47575;52.054;4.334;2022-11-02T02:12:58;101515.41;;;11.38;100.00
61678;BME280;47575;52.054;4.334;2022-11-02T02:15:27;101523.34;;;11.37;100.00
61678;BME280;47575;52.054;4.334;2022-11-02T02:17:59;101527.72;;;11.36;100.00
61678;BME280;47575;52.054;4.334;2022-11-02T02:20:33;101529.38;;;11.39;100.00
61678;BME280;47575;52.054;4.334;2022-11-02T02:23:10;101532.09;;;11.36;100.00
61678;BME280;47575;52.054;4.334;2022-11-02T02:25:51;101538.28;;;11.33;100.00
61678;BME280;47575;52.054;4.334;2022-11-02T02:28:22;101550.44;;;11.36;100.00
61678;BME280;47575;52.054;4.334;2022-11-02T02:30:54;101529.56;;;11.33;100.00
61678;BME280;47575;52.054;4.334;2022-11-02T02:33:25;101539.19;;;11.31;100.00
61678;BME280;47575;52.054;4.334;2022-11-02T02:35:55;101532.28;;;11.28;100.00
61678;BME280;47575;52.054;4.334;2022-11-02T02:38:26;101541.88;;;11.29;100.00
61678;BME280;47575;52.054;4.334;2022-11-02T02:40:56;101536.47;;;11.35;100.00
61678;BME280;47575;52.054;4.334;2022-11-02T02:43:27;101529.66;;;11.28;100.00
61678;BME280;47575;52.054;4.334;2022-11-02T02:45:59;101533.97;;;11.31;100.00
61678;BME280;47575;52.054;4.334;2022-11-02T02:48:27;101538.47;;;11.24;100.00
61678;BME280;47575;52.054;4.334;2022-11-02T02:50:58;101521.91;;;11.24;100.00
61678;BME280;47575;52.054;4.334;2022-11-02T02:53:27;101529.88;;;11.19;100.00
61678;BME280;47575;52.054;4.334;2022-11-02T02:55:56;101545.66;;;11.18;100.00
61678;BME280;47575;52.054;4.334;2022-11-02T02:58:26;101529.16;;;11.13;100.00
61678;BME280;47575;52.054;4.334;2022-11-02T03:00:56;101530.88;;;11.14;100.00
61678;BME280;47575;52.054;4.334;2022-11-02T03:03:27;101538.66;;;11.17;100.00
61678;BME280;47575;52.054;4.334;2022-11-02T03:06:00;101548.28;;;11.18;100.00
61678;BME280;47575;52.054;4.334;2022-11-02T03:08:30;101542.09;;;11.20;100.00
61678;BME280;47575;52.054;4.334;2022-11-02T03:11:00;101544.75;;;11.17;100.00
61678;BME280;47575;52.054;4.334;2022-11-02T03:13:36;101555.97;;;11.24;100.00
61678;BME280;47575;52.054;4.334;2022-11-02T03:16:10;101563.91;;;11.21;100.00
61678;BME280;47575;52.054;4.334;2022-11-02T03:18:43;101567.22;;;11.29;100.00
61678;BME280;47575;52.054;4.334;2022-11-02T03:21:14;101555.78;;;11.33;100.00
61678;BME280;47575;52.054;4.334;2022-11-02T03:23:45;101564.31;;;11.41;100.00
61678;BME280;47575;52.054;4.334;2022-11-02T03:26:17;101581.63;;;11.48;100.00
61678;BME280;47575;52.054;4.334;2022-11-02T03:28:52;101589.41;;;11.51;100.00
61678;BME280;47575;52.054;4.334;2022-11-02T03:31:24;101586.78;;;11.51;100.00
61678;BME280;47575;52.054;4.334;2022-11-02T03:33:57;101593.69;;;11.54;100.00
61678;BME280;47575;52.054;4.334;2022-11-02T03:36:27;101612.03;;;11.54;100.00
61678;BME280;47575;52.054;4.334;2022-11-02T03:38:59;101599.81;;;11.54;100.00
61678;BME280;47575;52.054;4.334;2022-11-02T03:41:27;101606.81;;;11.54;100.00
61678;BME280;47575;52.054;4.334;2022-11-02T03:44:00;101610.19;;;11.59;100.00
61678;BME280;47575;52.054;4.334;2022-11-02T03:46:30;101618.78;;;11.65;100.00
61678;BME280;47575;52.054;4.334;2022-11-02T03:48:58;101630.16;;;11.64;100.00
61678;BME280;47575;52.054;4.334;2022-11-02T03:51:26;101631.13;;;11.60;100.00
61678;BME280;47575;52.054;4.334;2022-11-02T03:53:57;101626.75;;;11.61;100.00
61678;BME280;47575;52.054;4.334;2022-11-02T03:56:30;101633.69;;;11.62;100.00
61678;BME280;47575;52.054;4.334;2022-11-02T03:59:00;101637.66;;;11.80;100.00
61678;BME280;47575;52.054;4.334;2022-11-02T04:01:28;101656.97;;;11.76;100.00
61678;BME280;47575;52.054;4.334;2022-11-02T04:03:57;101666.69;;;11.72;100.00
61678;BME280;47575;52.054;4.334;2022-11-02T04:06:25;101679.03;;;11.67;100.00
61678;BME280;47575;52.054;4.334;2022-11-02T04:08:52;101692.34;;;11.59;100.00
61678;BME280;47575;52.054;4.334;2022-11-02T04:11:20;101679.56;;;11.44;100.00
61678;BME280;47575;52.054;4.334;2022-11-02T04:14:12;101690.47;;;11.24;100.00
61678;BME280;47575;52.054;4.334;2022-11-02T04:16:58;101688.09;;;11.14;100.00
61678;BME280;47575;52.054;4.334;2022-11-02T04:19:43;101687.16;;;11.16;100.00
61678;BME280;47575;52.054;4.334;2022-11-02T04:22:10;101695.75;;;11.23;100.00
61678;BME280;47575;52.054;4.334;2022-11-02T04:25:03;101718.13;;;11.39;100.00
61678;BME280;47575;52.054;4.334;2022-11-02T04:27:55;101716.34;;;11.41;100.00
61678;BME280;47575;52.054;4.334;2022-11-02T04:30:29;101714.69;;;11.37;100.00
61678;BME280;47575;52.054;4.334;2022-11-02T04:33:01;101724.25;;;11.38;100.00
61678;BME280;47575;52.054;4.334;2022-11-02T04:35:52;101738.28;;;11.37;100.00
61678;BME280;47575;52.054;4.334;2022-11-02T04:38:20;101737.38;;;11.38;100.00
61678;BME280;47575;52.054;4.334;2022-11-02T04:41:04;101743.47;;;11.40;100.00
61678;BME280;47575;52.054;4.334;2022-11-02T04:43:52;101741.50;;;11.50;100.00
61678;BME280;47575;52.054;4.334;2022-11-02T04:46:21;101749.25;;;11.56;100.00
61678;BME280;47575;52.054;4.334;2022-11-02T04:48:48;101744.81;;;11.58;100.00
61678;BME280;47575;52.054;4.334;2022-11-02T04:51:16;101753.72;;;11.51;100.00
61678;BME280;47575;52.054;4.334;2022-11-02T04:53:45;101752.88;;;11.49;100.00
61678;BME280;47575;52.054;4.334;2022-11-02T04:56:12;101753.78;;;11.46;100.00
61678;BME280;47575;52.054;4.334;2022-11-02T04:58:39;101759.00;;;11.49;100.00
61678;BME280;47575;52.054;4.334;2022-11-02T05:01:09;101779.84;;;11.54;100.00
61678;BME280;47575;52.054;4.334;2022-11-02T05:03:39;101790.22;;;11.60;100.00
61678;BME280;47575;52.054;4.334;2022-11-02T05:06:07;101798.09;;;11.60;100.00
61678;BME280;47575;52.054;4.334;2022-11-02T05:08:35;101801.56;;;11.60;100.00
61678;BME280;47575;52.054;4.334;2022-11-02T05:11:02;101795.59;;;11.54;100.00
61678;BME280;47575;52.054;4.334;2022-11-02T05:13:30;101786.84;;;11.55;100.00
61678;BME280;47575;52.054;4.334;2022-11-02T05:15:58;101781.44;;;11.61;100.00
61678;BME280;47575;52.054;4.334;2022-11-02T05:18:27;101770.09;;;11.60;100.00
61678;BME280;47575;52.054;4.334;2022-11-02T05:20:56;101763.09;;;11.61;100.00
61678;BME280;47575;52.054;4.334;2022-11-02T05:23:26;101744.84;;;11.56;100.00
61678;BME280;47575;52.054;4.334;2022-11-02T05:25:54;101756.22;;;11.57;100.00
61678;BME280;47575;52.054;4.334;2022-11-02T05:28:23;101750.16;;;11.55;100.00
61678;BME280;47575;52.054;4.334;2022-11-02T05:30:50;101759.75;;;11.54;100.00
61678;BME280;47575;52.054;4.334;2022-11-02T05:33:17;101763.38;;;11.49;100.00
61678;BME280;47575;52.054;4.334;2022-11-02T05:35:45;101755.47;;;11.50;100.00
61678;BME280;47575;52.054;4.334;2022-11-02T05:38:13;101770.22;;;11.54;100.00
61678;BME280;47575;52.054;4.334;2022-11-02T05:40:40;101756.94;;;11.63;100.00
61678;BME280;47575;52.054;4.334;2022-11-02T05:43:09;101764.56;;;11.74;100.00
61678;BME280;47575;52.054;4.334;2022-11-02T05:45:37;101775.94;;;11.73;100.00
61678;BME280;47575;52.054;4.334;2022-11-02T05:48:04;101767.22;;;11.73;100.00
61678;BME280;47575;52.054;4.334;2022-11-02T05:50:32;101763.75;;;11.72;100.00
61678;BME280;47575;52.054;4.334;2022-11-02T05:53:01;101766.38;;;11.72;100.00
61678;BME280;47575;52.054;4.334;2022-11-02T05:55:29;101771.53;;;11.75;100.00
61678;BME280;47575;52.054;4.334;2022-11-02T05:57:56;101765.41;;;11.75;100.00
61678;BME280;47575;52.054;4.334;2022-11-02T06:00:23;101772.38;;;11.77;100.00
61678;BME280;47575;52.054;4.334;2022-11-02T06:02:54;101780.25;;;11.77;100.00
61678;BME280;47575;52.054;4.334;2022-11-02T06:05:21;101767.09;;;11.79;100.00
61678;BME280;47575;52.054;4.334;2022-11-02T06:07:48;101779.31;;;11.80;100.00
61678;BME280;47575;52.054;4.334;2022-11-02T06:10:15;101769.81;;;11.74;100.00
61678;BME280;47575;52.054;4.334;2022-11-02T06:12:43;101774.06;;;11.80;100.00
61678;BME280;47575;52.054;4.334;2022-11-02T06:15:10;101805.59;;;11.77;100.00
61678;BME280;47575;52.054;4.334;2022-11-02T06:17:37;101787.22;;;11.77;100.00
61678;BME280;47575;52.054;4.334;2022-11-02T06:20:05;101810.84;;;11.77;100.00
61678;BME280;47575;52.054;4.334;2022-11-02T06:22:37;101817.78;;;11.79;100.00
61678;BME280;47575;52.054;4.334;2022-11-02T06:25:04;101817.78;;;11.79;100.00
61678;BME280;47575;52.054;4.334;2022-11-02T06:27:31;101815.28;;;11.73;100.00
61678;BME280;47575;52.054;4.334;2022-11-02T06:29:59;101807.34;;;11.76;100.00
61678;BME280;47575;52.054;4.334;2022-11-02T06:32:26;101818.66;;;11.80;100.00
61678;BME280;47575;52.054;4.334;2022-11-02T06:34:53;101830.00;;;11.82;100.00
61678;BME280;47575;52.054;4.334;2022-11-02T06:37:20;101824.72;;;11.85;100.00
61678;BME280;47575;52.054;4.334;2022-11-02T06:39:48;101829.09;;;11.84;100.00
61678;BME280;47575;52.054;4.334;2022-11-02T06:42:15;101833.53;;;11.81;100.00
61678;BME280;47575;52.054;4.334;2022-11-02T06:44:42;101855.38;;;11.81;100.00
61678;BME280;47575;52.054;4.334;2022-11-02T06:47:10;101845.56;;;11.89;100.00
61678;BME280;47575;52.054;4.334;2022-11-02T06:49:37;101851.75;;;11.87;100.00
61678;BME280;47575;52.054;4.334;2022-11-02T06:52:04;101855.31;;;11.84;100.00
61678;BME280;47575;52.054;4.334;2022-11-02T06:54:31;101867.53;;;11.85;100.00
61678;BME280;47575;52.054;4.334;2022-11-02T06:56:58;101869.16;;;11.93;100.00
61678;BME280;47575;52.054;4.334;2022-11-02T06:59:25;101886.59;;;11.94;100.00
61678;BME280;47575;52.054;4.334;2022-11-02T07:01:52;101867.34;;;11.95;100.00
61678;BME280;47575;52.054;4.334;2022-11-02T07:04:21;101880.59;;;11.88;100.00
61678;BME280;47575;52.054;4.334;2022-11-02T07:06:48;101884.19;;;11.84;100.00
61678;BME280;47575;52.054;4.334;2022-11-02T07:09:15;101882.47;;;11.82;100.00
61678;BME280;47575;52.054;4.334;2022-11-02T07:11:42;101880.66;;;11.84;100.00
61678;BME280;47575;52.054;4.334;2022-11-02T07:14:08;101887.66;;;11.85;100.00
61678;BME280;47575;52.054;4.334;2022-11-02T07:16:35;101885.00;;;11.86;100.00
61678;BME280;47575;52.054;4.334;2022-11-02T07:19:02;101887.59;;;11.88;100.00
61678;BME280;47575;52.054;4.334;2022-11-02T07:21:31;101886.72;;;11.87;100.00
61678;BME280;47575;52.054;4.334;2022-11-02T07:23:58;101881.56;;;11.84;100.00
61678;BME280;47575;52.054;4.334;2022-11-02T07:26:25;101891.19;;;11.82;100.00
61678;BME280;47575;52.054;4.334;2022-11-02T07:28:52;101900.91;;;11.77;100.00
61678;BME280;47575;52.054;4.334;2022-11-02T07:31:19;101891.44;;;11.70;100.00
61678;BME280;47575;52.054;4.334;2022-11-02T07:33:46;101904.50;;;11.72;100.00
61678;BME280;47575;52.054;4.334;2022-11-02T07:36:13;101902.63;;;11.78;100.00
61678;BME280;47575;52.054;4.334;2022-11-02T07:38:41;101906.16;;;11.76;100.00
61678;BME280;47575;52.054;4.334;2022-11-02T07:41:08;101909.59;;;11.81;100.00
61678;BME280;47575;52.054;4.334;2022-11-02T07:43:35;101916.44;;;11.88;100.00
61678;BME280;47575;52.054;4.334;2022-11-02T07:46:22;101920.56;;;12.01;100.00
61678;BME280;47575;52.054;4.334;2022-11-02T07:48:49;101919.34;;;12.17;100.00
61678;BME280;47575;52.054;4.334;2022-11-02T07:51:17;101916.38;;;12.33;100.00
61678;BME280;47575;52.054;4.334;2022-11-02T07:53:45;101926.63;;;12.43;100.00
61678;BME280;47575;52.054;4.334;2022-11-02T07:56:12;101924.72;;;12.52;100.00
61678;BME280;47575;52.054;4.334;2022-11-02T07:58:39;101938.53;;;12.60;100.00
61678;BME280;47575;52.054;4.334;2022-11-02T08:01:06;101941.00;;;12.66;100.00
61678;BME280;47575;52.054;4.334;2022-11-02T08:03:33;101938.91;;;12.80;100.00
61678;BME280;47575;52.054;4.334;2022-11-02T08:06:00;101951.09;;;13.21;100.00
61678;BME280;47575;52.054;4.334;2022-11-02T08:08:28;101956.69;;;13.74;100.00
61678;BME280;47575;52.054;4.334;2022-11-02T08:11:01;101955.19;;;14.26;100.00
61678;BME280;47575;52.054;4.334;2022-11-02T08:13:28;101951.78;;;14.54;100.00
61678;BME280;47575;52.054;4.334;2022-11-02T08:15:55;101946.44;;;14.83;100.00
61678;BME280;47575;52.054;4.334;2022-11-02T08:18:22;101941.69;;;14.94;100.00
61678;BME280;47575;52.054;4.334;2022-11-02T08:20:49;101944.53;;;15.15;100.00
61678;BME280;47575;52.054;4.334;2022-11-02T08:23:17;101930.09;;;15.25;100.00
61678;BME280;47575;52.054;4.334;2022-11-02T08:25:46;101939.34;;;15.63;100.00
61678;BME280;47575;52.054;4.334;2022-11-02T08:28:15;101927.50;;;15.98;100.00
61678;BME280;47575;52.054;4.334;2022-11-02T08:30:42;101936.13;;;16.03;100.00
61678;BME280;47575;52.054;4.334;2022-11-02T08:33:10;101932.34;;;16.11;100.00
61678;BME280;47575;52.054;4.334;2022-11-02T08:35:38;101925.59;;;16.25;100.00
61678;BME280;47575;52.054;4.334;2022-11-02T08:38:05;101936.91;;;16.29;100.00
61678;BME280;47575;52.054;4.334;2022-11-02T08:40:32;101925.81;;;16.65;100.00
61678;BME280;47575;52.054;4.334;2022-11-02T08:43:00;101935.00;;;17.00;100.00
61678;BME280;47575;52.054;4.334;2022-11-02T08:45:29;101930.06;;;16.69;100.00
61678;BME280;47575;52.054;4.334;2022-11-02T08:47:56;101935.19;;;16.95;100.00
61678;BME280;47575;52.054;4.334;2022-11-02T08:50:23;101927.31;;;16.72;100.00
61678;BME280;47575;52.054;4.334;2022-11-02T08:52:50;101924.16;;;17.06;100.00
61678;BME280;47575;52.054;4.334;2022-11-02T08:55:17;101931.28;;;17.04;100.00
61678;BME280;47575;52.054;4.334;2022-11-02T08:57:45;101918.56;;;17.13;100.00
61678;BME280;47575;52.054;4.334;2022-11-02T09:00:12;101916.63;;;17.37;100.00
61678;BME280;47575;52.054;4.334;2022-11-02T09:02:41;101922.72;;;17.60;100.00
61678;BME280;47575;52.054;4.334;2022-11-02T09:05:08;101915.78;;;17.37;100.00
61678;BME280;47575;52.054;4.334;2022-11-02T09:07:36;101916.75;;;17.34;100.00
61678;BME280;47575;52.054;4.334;2022-11-02T09:10:03;101911.50;;;17.12;100.00
61678;BME280;47575;52.054;4.334;2022-11-02T09:12:30;101909.97;;;16.86;100.00
61678;BME280;47575;52.054;4.334;2022-11-02T09:14:57;101900.50;;;16.14;100.00
61678;BME280;47575;52.054;4.334;2022-11-02T09:17:24;101910.66;;;16.70;100.00
61678;BME280;47575;52.054;4.334;2022-11-02T09:19:52;101916.16;;;16.64;100.00
61678;BME280;47575;52.054;4.334;2022-11-02T09:22:21;101913.84;;;16.78;100.00
61678;BME280;47575;52.054;4.334;2022-11-02T09:24:48;101910.19;;;17.02;100.00
61678;BME280;47575;52.054;4.334;2022-11-02T09:27:15;101921.19;;;16.26;100.00
61678;BME280;47575;52.054;4.334;2022-11-02T09:29:42;101927.63;;;16.19;100.00
61678;BME280;47575;52.054;4.334;2022-11-02T09:32:09;101931.47;;;16.10;100.00
61678;BME280;47575;52.054;4.334;2022-11-02T09:34:36;101933.69;;;15.74;100.00
61678;BME280;47575;52.054;4.334;2022-11-02T09:37:04;101939.81;;;15.49;100.00
61678;BME280;47575;52.054;4.334;2022-11-02T09:39:31;101937.34;;;15.95;100.00
61678;BME280;47575;52.054;4.334;2022-11-02T09:42:00;101943.56;;;16.16;100.00
61678;BME280;47575;52.054;4.334;2022-11-02T09:44:34;101939.78;;;16.23;100.00
61678;BME280;47575;52.054;4.334;2022-11-02T09:47:03;101936.75;;;16.33;100.00
61678;BME280;47575;52.054;4.334;2022-11-02T09:49:34;101941.53;;;16.69;100.00
61678;BME280;47575;52.054;4.334;2022-11-02T09:52:01;101945.63;;;16.54;100.00
61678;BME280;47575;52.054;4.334;2022-11-02T09:54:31;101936.56;;;15.91;100.00
61678;BME280;47575;52.054;4.334;2022-11-02T09:57:01;101944.25;;;15.74;100.00
61678;BME280;47575;52.054;4.334;2022-11-02T09:59:30;101942.97;;;16.09;100.00
61678;BME280;47575;52.054;4.334;2022-11-02T10:01:59;101945.94;;;16.69;100.00
61678;BME280;47575;52.054;4.334;2022-11-02T10:04:38;101942.19;;;16.74;100.00
61678;BME280;47575;52.054;4.334;2022-11-02T10:07:10;101938.53;;;16.55;100.00
61678;BME280;47575;52.054;4.334;2022-11-02T10:09:44;101950.72;;;17.03;100.00
61678;BME280;47575;52.054;4.334;2022-11-02T10:12:16;101942.53;;;17.09;100.00
61678;BME280;47575;52.054;4.334;2022-11-02T10:14:48;101944.97;;;17.76;100.00
61678;BME280;47575;52.054;4.334;2022-11-02T10:17:20;101957.47;;;17.73;100.00
61678;BME280;47575;52.054;4.334;2022-11-02T10:19:48;101957.91;;;17.21;100.00
61678;BME280;47575;52.054;4.334;2022-11-02T10:22:17;101966.56;;;17.25;100.00
61678;BME280;47575;52.054;4.334;2022-11-02T10:24:46;101962.09;;;17.05;100.00
61678;BME280;47575;52.054;4.334;2022-11-02T10:27:15;101964.84;;;17.24;100.00
61678;BME280;47575;52.054;4.334;2022-11-02T10:29:47;101967.38;;;17.05;100.00
61678;BME280;47575;52.054;4.334;2022-11-02T10:32:15;101976.13;;;17.29;100.00
61678;BME280;47575;52.054;4.334;2022-11-02T10:34:42;101963.53;;;17.54;100.00
61678;BME280;47575;52.054;4.334;2022-11-02T10:37:21;101965.22;;;17.77;100.00
61678;BME280;47575;52.054;4.334;2022-11-02T10:39:54;101969.28;;;18.05;100.00
61678;BME280;47575;52.054;4.334;2022-11-02T10:42:29;101969.31;;;17.84;100.00
61678;BME280;47575;52.054;4.334;2022-11-02T10:45:03;101964.66;;;17.49;100.00
61678;BME280;47575;52.054;4.334;2022-11-02T10:47:38;101959.03;;;17.56;100.00
61678;BME280;47575;52.054;4.334;2022-11-02T10:50:15;101959.50;;;17.66;100.00
61678;BME280;47575;52.054;4.334;2022-11-02T10:52:44;101965.47;;;17.91;100.00
61678;BME280;47575;52.054;4.334;2022-11-02T10:55:16;101966.44;;;17.48;100.00
61678;BME280;47575;52.054;4.334;2022-11-02T10:57:45;101965.56;;;16.85;100.00
61678;BME280;47575;52.054;4.334;2022-11-02T11:00:22;101967.31;;;16.63;100.00
61678;BME280;47575;52.054;4.334;2022-11-02T11:03:01;101957.25;;;16.72;100.00
61678;BME280;47575;52.054;4.334;2022-11-02T11:05:28;101956.22;;;16.53;100.00
61678;BME280;47575;52.054;4.334;2022-11-02T11:07:55;101962.56;;;16.72;100.00
61678;BME280;47575;52.054;4.334;2022-11-02T11:10:23;101954.19;;;16.83;100.00
61678;BME280;47575;52.054;4.334;2022-11-02T11:12:50;101951.16;;;17.55;100.00
61678;BME280;47575;52.054;4.334;2022-11-02T11:15:20;101957.47;;;17.52;100.00
61678;BME280;47575;52.054;4.334;2022-11-02T11:17:47;101948.84;;;17.47;100.00
61678;BME280;47575;52.054;4.334;2022-11-02T11:20:30;101963.06;;;17.65;100.00
61678;BME280;47575;52.054;4.334;2022-11-02T11:23:08;101964.91;;;17.63;100.00
61678;BME280;47575;52.054;4.334;2022-11-02T11:25:42;101965.56;;;17.27;100.00
61678;BME280;47575;52.054;4.334;2022-11-02T11:28:22;101964.38;;;17.14;100.00
61678;BME280;47575;52.054;4.334;2022-11-02T11:31:00;101969.25;;;17.03;100.00
61678;BME280;47575;52.054;4.334;2022-11-02T11:33:27;101964.78;;;16.59;100.00
61678;BME280;47575;52.054;4.334;2022-11-02T11:35:56;101960.63;;;16.76;100.00
61678;BME280;47575;52.054;4.334;2022-11-02T11:38:23;101964.97;;;16.55;100.00
61678;BME280;47575;52.054;4.334;2022-11-02T11:40:53;101969.75;;;16.67;100.00
61678;BME280;47575;52.054;4.334;2022-11-02T11:43:22;101965.94;;;16.52;100.00
61678;BME280;47575;52.054;4.334;2022-11-02T11:45:53;101968.56;;;16.98;100.00
61678;BME280;47575;52.054;4.334;2022-11-02T11:48:24;101977.44;;;16.97;100.00
61678;BME280;47575;52.054;4.334;2022-11-02T11:50:55;101979.91;;;17.01;100.00
61678;BME280;47575;52.054;4.334;2022-11-02T11:53:23;101967.66;;;16.53;100.00
61678;BME280;47575;52.054;4.334;2022-11-02T11:55:51;101957.16;;;16.52;100.00
61678;BME280;47575;52.054;4.334;2022-11-02T11:58:20;101955.41;;;16.96;100.00
61678;BME280;47575;52.054;4.334;2022-11-02T12:01:00;101951.72;;;17.21;100.00
61678;BME280;47575;52.054;4.334;2022-11-02T12:03:27;101938.91;;;16.69;100.00
61678;BME280;47575;52.054;4.334;2022-11-02T12:05:56;101945.94;;;16.91;100.00
61678;BME280;47575;52.054;4.334;2022-11-02T12:08:33;101948.56;;;16.91;100.00
61678;BME280;47575;52.054;4.334;2022-11-02T12:11:05;101954.13;;;16.84;100.00
61678;BME280;47575;52.054;4.334;2022-11-02T12:13:46;101945.00;;;16.48;100.00
61678;BME280;47575;52.054;4.334;2022-11-02T12:16:18;101944.16;;;16.46;100.00
61678;BME280;47575;52.054;4.334;2022-11-02T12:18:56;101943.00;;;16.76;100.00
61678;BME280;47575;52.054;4.334;2022-11-02T12:21:34;101943.75;;;16.34;100.00
61678;BME280;47575;52.054;4.334;2022-11-02T12:24:06;101942.41;;;16.68;100.00
61678;BME280;47575;52.054;4.334;2022-11-02T12:26:40;101945.22;;;16.87;100.00
61678;BME280;47575;52.054;4.334;2022-11-02T12:29:19;101946.81;;;16.69;100.00
61678;BME280;47575;52.054;4.334;2022-11-02T12:31:50;101931.91;;;16.67;100.00
61678;BME280;47575;52.054;4.334;2022-11-02T12:34:27;101935.91;;;16.55;100.00
61678;BME280;47575;52.054;4.334;2022-11-02T12:37:00;101934.63;;;16.20;100.00
61678;BME280;47575;52.054;4.334;2022-11-02T12:39:32;101939.38;;;16.33;100.00
61678;BME280;47575;52.054;4.334;2022-11-02T12:42:10;101938.69;;;16.28;100.00
61678;BME280;47575;52.054;4.334;2022-11-02T12:44:45;101919.63;;;16.20;100.00
61678;BME280;47575;52.054;4.334;2022-11-02T12:47:17;101929.03;;;16.27;100.00
61678;BME280;47575;52.054;4.334;2022-11-02T12:49:48;101908.44;;;16.14;100.00
61678;BME280;47575;52.054;4.334;2022-11-02T12:52:23;101916.81;;;16.25;100.00
61678;BME280;47575;52.054;4.334;2022-11-02T12:54:53;101910.97;;;16.39;100.00